createdAt,value
2022-10-11T00:02:29.794Z,22.58
2022-10-11T00:05:08.667Z,22.75
2022-10-11T00:07:45.911Z,22.69
2022-10-11T00:10:24.706Z,22.94
2022-10-11T00:13:02.638Z,23.13
2022-10-11T00:15:40.945Z,22.72
2022-10-11T00:18:18.970Z,22.63
2022-10-11T00:21:03.000Z,22.73
2022-10-11T00:23:41.858Z,22.79
2022-10-11T00:26:19.888Z,22.51
2022-10-11T00:28:58.091Z,22.49
2022-10-11T00:31:36.666Z,22.42
2022-10-11T00:34:17.082Z,22.54
2022-10-11T00:36:54.663Z,22.56
2022-10-11T00:39:33.174Z,23.00
2022-10-11T00:42:15.350Z,22.77
2022-10-11T00:44:52.367Z,22.44
2022-10-11T00:47:30.590Z,22.34
2022-10-11T00:50:11.530Z,22.38
2022-10-11T00:52:55.678Z,22.14
2022-10-11T00:55:36.831Z,22.50
2022-10-11T00:58:14.786Z,22.08
2022-10-11T01:00:54.023Z,22.38
2022-10-11T01:03:38.246Z,22.58
2022-10-11T01:06:15.861Z,22.81
2022-10-11T01:08:54.082Z,22.89
2022-10-11T01:11:42.514Z,22.96
2022-10-11T01:14:36.793Z,22.90
2022-10-11T01:17:23.335Z,22.89
2022-10-11T01:20:20.199Z,22.79
2022-10-11T01:23:35.825Z,22.94
2022-10-11T01:26:39.465Z,22.91
2022-10-11T01:29:42.077Z,22.74
2022-10-11T01:32:29.352Z,22.33
2022-10-11T01:35:15.414Z,22.49
2022-10-11T01:38:01.774Z,22.24
2022-10-11T01:40:45.861Z,22.23
2022-10-11T01:43:25.599Z,22.03
2022-10-11T01:46:04.764Z,21.73
2022-10-11T01:48:55.278Z,21.85
2022-10-11T01:51:47.458Z,21.74
2022-10-11T01:54:56.627Z,21.95
2022-10-11T01:57:43.695Z,21.82
2022-10-11T02:00:28.728Z,21.82
2022-10-11T02:03:21.423Z,22.02
2022-10-11T02:06:22.499Z,21.63
2022-10-11T02:09:22.111Z,21.87
2022-10-11T02:12:07.029Z,21.80
2022-10-11T02:14:49.317Z,22.13
2022-10-11T02:17:34.246Z,21.90
2022-10-11T02:20:17.582Z,21.99
2022-10-11T02:23:13.386Z,21.42
2022-10-11T02:25:53.525Z,21.59
2022-10-11T02:28:35.636Z,21.92
2022-10-11T02:31:15.217Z,22.21
2022-10-11T02:34:21.933Z,22.03
2022-10-11T02:37:08.851Z,21.96
2022-10-11T02:39:51.868Z,21.56
2022-10-11T02:42:37.910Z,21.58
2022-10-11T02:50:00.034Z,21.65
2022-10-11T02:52:38.069Z,21.29
2022-10-11T02:55:16.619Z,21.11
2022-10-11T02:57:54.504Z,21.05
2022-10-11T03:00:33.269Z,21.26
2022-10-11T03:03:11.073Z,21.49
2022-10-11T03:05:49.263Z,21.57
2022-10-11T03:08:27.766Z,21.36
2022-10-11T03:11:05.757Z,21.82
2022-10-11T03:13:43.898Z,21.32
2022-10-11T03:16:22.099Z,21.56
2022-10-11T03:19:00.348Z,21.70
2022-10-11T03:21:38.787Z,21.73
2022-10-11T03:24:16.790Z,21.73
2022-10-11T03:26:55.388Z,21.73
2022-10-11T03:29:33.244Z,21.54
2022-10-11T03:32:11.811Z,21.66
2022-10-11T03:34:49.713Z,21.81
2022-10-11T03:37:28.272Z,21.55
2022-10-11T03:40:08.349Z,21.49
2022-10-11T03:42:45.981Z,21.39
2022-10-11T03:45:24.290Z,21.32
2022-10-11T03:48:03.300Z,21.32
2022-10-11T03:50:40.718Z,20.98
2022-10-11T03:53:18.903Z,20.99
2022-10-11T03:55:57.593Z,21.09
2022-10-11T03:58:35.430Z,21.04
2022-10-11T04:01:13.685Z,20.83
2022-10-11T04:03:55.654Z,21.15
2022-10-11T04:06:33.338Z,20.86
2022-10-11T04:09:11.687Z,21.04
2022-10-11T04:11:49.692Z,21.09
2022-10-11T04:14:28.065Z,20.71
2022-10-11T04:17:06.432Z,20.46
2022-10-11T04:19:44.354Z,20.57
2022-10-11T04:22:22.606Z,20.76
2022-10-11T04:25:00.870Z,20.84
2022-10-11T04:27:39.212Z,21.01
2022-10-11T04:30:17.544Z,20.97
2022-10-11T04:32:55.540Z,20.66
2022-10-11T04:35:33.758Z,20.50
2022-10-11T04:38:11.929Z,20.38
2022-10-11T04:40:50.286Z,20.47
2022-10-11T04:43:28.430Z,20.22
2022-10-11T04:46:07.986Z,20.43
2022-10-11T04:48:46.638Z,20.56
2022-10-11T04:51:25.579Z,20.27
2022-10-11T04:54:02.966Z,20.39
2022-10-11T04:56:41.145Z,20.53
2022-10-11T04:59:19.442Z,20.90
2022-10-11T05:01:57.714Z,20.90
2022-10-11T05:04:35.813Z,21.03
2022-10-11T05:07:14.215Z,20.95
2022-10-11T05:09:52.349Z,21.10
2022-10-11T05:12:30.594Z,20.81
2022-10-11T05:15:09.262Z,20.63
2022-10-11T05:17:46.962Z,21.05
2022-10-11T05:20:25.183Z,21.17
2022-10-11T05:23:03.406Z,21.27
2022-10-11T05:25:41.684Z,21.20
2022-10-11T05:28:19.951Z,21.22
2022-10-11T05:30:58.532Z,21.32
2022-10-11T05:33:36.749Z,21.28
2022-10-11T05:36:15.303Z,21.25
2022-10-11T05:38:52.730Z,21.25
2022-10-11T05:41:31.137Z,21.31
2022-10-11T05:44:09.237Z,21.32
2022-10-11T05:46:47.471Z,21.34
2022-10-11T05:49:25.731Z,21.39
2022-10-11T05:52:04.048Z,21.39
2022-10-11T05:54:42.266Z,21.39
2022-10-11T05:57:20.389Z,21.27
2022-10-11T05:59:58.622Z,21.29
2022-10-11T06:02:36.805Z,21.50
2022-10-11T06:05:15.597Z,21.64
2022-10-11T06:07:53.318Z,21.65
2022-10-11T06:10:32.189Z,21.69
2022-10-11T06:13:09.779Z,21.86
2022-10-11T06:16:11.345Z,21.67
2022-10-11T06:19:11.227Z,21.59
2022-10-11T06:22:06.492Z,21.87
2022-10-11T06:25:03.418Z,22.63
2022-10-11T06:27:58.305Z,23.65
2022-10-11T06:30:56.939Z,23.52
2022-10-11T06:33:51.644Z,25.36
2022-10-11T06:36:46.438Z,26.49
2022-10-11T06:39:41.820Z,26.79
2022-10-11T06:42:42.624Z,26.85
2022-10-11T06:45:40.249Z,26.88
2022-10-11T06:48:39.950Z,27.78
2022-10-11T06:51:31.447Z,28.34
2022-10-11T06:54:23.488Z,28.83
2022-10-11T06:57:18.430Z,29.24
2022-10-11T07:00:14.371Z,29.95
2022-10-11T07:03:15.114Z,30.44
2022-10-11T07:06:18.989Z,31.03
2022-10-11T07:09:19.771Z,31.64
2022-10-11T07:12:11.750Z,32.05
2022-10-11T07:15:07.874Z,33.24
2022-10-11T07:18:04.533Z,34.01
2022-10-11T07:21:01.923Z,34.92
2022-10-11T07:24:05.374Z,35.17
2022-10-11T07:26:56.932Z,35.71
2022-10-11T07:30:03.076Z,36.01
2022-10-11T07:32:58.512Z,36.16
2022-10-11T07:35:51.080Z,37.13
2022-10-11T07:38:47.569Z,36.99
2022-10-11T07:41:45.660Z,37.54
2022-10-11T07:44:38.245Z,37.66
2022-10-11T07:47:38.114Z,38.06
2022-10-11T07:50:34.269Z,37.87
2022-10-11T07:53:43.289Z,38.35
2022-10-11T07:56:34.973Z,38.58
2022-10-11T07:59:39.142Z,38.47
2022-10-11T08:02:30.729Z,39.39
2022-10-11T08:05:24.755Z,39.62
2022-10-11T08:08:19.389Z,40.06
2022-10-11T08:11:23.402Z,39.87
2022-10-11T08:14:19.399Z,40.26
2022-10-11T08:17:11.940Z,40.49
2022-10-11T08:20:04.746Z,40.78
2022-10-11T08:23:00.516Z,40.18
2022-10-11T08:25:56.593Z,39.94
2022-10-11T08:28:52.361Z,39.71
2022-10-11T08:31:44.778Z,40.08
2022-10-11T08:34:45.719Z,40.50
2022-10-11T08:37:37.489Z,40.68
2022-10-11T08:40:32.915Z,40.13
2022-10-11T08:43:40.617Z,40.07
2022-10-11T08:46:56.915Z,39.30
2022-10-11T08:50:00.689Z,39.09
2022-10-11T08:53:05.909Z,39.70
2022-10-11T08:55:50.859Z,39.73
2022-10-11T08:59:04.578Z,39.63
2022-10-11T09:02:43.607Z,40.05
2022-10-11T09:05:30.987Z,40.14
2022-10-11T09:08:34.653Z,39.98
2022-10-11T09:11:33.021Z,40.27
2022-10-11T09:14:23.485Z,40.30
2022-10-11T09:17:11.728Z,40.99
2022-10-11T09:19:55.942Z,41.03
2022-10-11T09:22:51.866Z,41.46
2022-10-11T09:25:41.915Z,41.67
2022-10-11T09:28:44.086Z,41.32
2022-10-11T09:31:11.476Z,41.04
2022-10-11T09:33:44.029Z,40.68
2022-10-11T09:39:10.185Z,40.79
2022-10-11T09:42:03.502Z,40.73
2022-10-11T09:44:35.567Z,40.02
2022-10-11T09:47:03.318Z,40.13
2022-10-11T09:49:40.657Z,39.94
2022-10-11T09:52:17.229Z,40.36
2022-10-11T09:54:52.135Z,40.27
2022-10-11T09:57:23.657Z,40.38
2022-10-11T10:00:02.379Z,39.71
2022-10-11T10:03:26.377Z,39.66
2022-10-11T10:06:06.825Z,39.63
2022-10-11T10:08:34.803Z,38.32
2022-10-11T10:11:07.979Z,37.76
2022-10-11T10:13:40.622Z,37.81
2022-10-11T10:16:11.710Z,37.70
2022-10-11T10:18:50.790Z,36.56
2022-10-11T10:21:29.655Z,36.34
2022-10-11T10:23:59.923Z,35.69
2022-10-11T10:26:27.320Z,35.36
2022-10-11T10:29:09.535Z,35.27
2022-10-11T10:32:12.965Z,35.06
2022-10-11T10:34:41.465Z,34.07
2022-10-11T10:37:25.237Z,34.18
2022-10-11T10:39:56.338Z,34.50
2022-10-11T10:42:22.999Z,34.71
2022-10-11T10:44:54.954Z,34.81
2022-10-11T10:47:46.167Z,34.75
2022-10-11T10:50:21.565Z,34.48
2022-10-11T10:53:12.024Z,33.05
2022-10-11T10:55:44.309Z,33.02
2022-10-11T10:58:29.486Z,32.64
2022-10-11T11:01:02.163Z,32.60
2022-10-11T11:03:32.185Z,32.48
2022-10-11T11:06:06.384Z,32.75
2022-10-11T11:08:53.195Z,32.72
2022-10-11T11:11:37.380Z,32.39
2022-10-11T11:14:18.653Z,32.70
2022-10-11T11:16:56.214Z,32.34
2022-10-11T11:19:29.978Z,32.20
2022-10-11T11:22:14.885Z,31.88
2022-10-11T11:25:05.722Z,32.21
2022-10-11T11:28:10.058Z,32.24
2022-10-11T11:30:41.301Z,31.69
2022-10-11T11:33:46.359Z,32.04
2022-10-11T11:36:23.407Z,32.23
2022-10-11T11:38:56.750Z,32.49
2022-10-11T11:41:27.506Z,31.82
2022-10-11T11:44:22.764Z,32.37
2022-10-11T11:47:04.355Z,31.68
2022-10-11T11:49:36.036Z,31.41
2022-10-11T11:52:05.491Z,31.46
2022-10-11T11:54:47.340Z,31.13
2022-10-11T11:57:34.333Z,31.63
2022-10-11T12:00:13.369Z,31.53
2022-10-11T12:02:50.282Z,32.26
2022-10-11T12:05:22.045Z,32.29
2022-10-11T12:07:56.277Z,32.49
2022-10-11T12:10:27.936Z,32.17
2022-10-11T12:13:06.678Z,32.29
2022-10-11T12:15:34.107Z,31.86
2022-10-11T12:18:04.384Z,31.50
2022-10-11T12:20:41.460Z,30.54
2022-10-11T12:23:29.922Z,31.35
2022-10-11T12:26:16.109Z,31.54
2022-10-11T12:28:43.022Z,31.59
2022-10-11T12:31:20.702Z,31.41
2022-10-11T12:33:47.161Z,31.45
2022-10-11T12:36:32.291Z,31.37
2022-10-11T12:39:18.214Z,30.90
2022-10-11T12:41:47.516Z,30.48
2022-10-11T12:44:23.996Z,30.74
2022-10-11T12:46:50.462Z,30.71
2022-10-11T12:49:36.275Z,30.67
2022-10-11T12:52:22.450Z,30.19
2022-10-11T12:55:22.785Z,30.42
2022-10-11T12:58:26.883Z,30.68
2022-10-11T13:00:56.950Z,30.87
2022-10-11T13:03:34.585Z,30.50
2022-10-11T13:06:24.989Z,30.96
2022-10-11T13:09:04.441Z,30.94
2022-10-11T13:11:35.222Z,30.73
2022-10-11T13:14:17.489Z,30.58
2022-10-11T13:16:49.887Z,30.72
2022-10-11T13:19:17.269Z,30.75
2022-10-11T13:21:51.454Z,30.68
2022-10-11T13:24:19.330Z,30.47
2022-10-11T13:26:49.059Z,30.03
2022-10-11T13:29:18.716Z,29.99
2022-10-11T13:31:48.069Z,30.21
2022-10-11T13:34:17.671Z,30.46
2022-10-11T13:36:46.430Z,30.43
2022-10-11T13:39:31.602Z,30.31
2022-10-11T13:42:00.093Z,30.44
2022-10-11T13:44:27.197Z,30.50
2022-10-11T13:46:54.527Z,30.53
2022-10-11T13:49:27.402Z,30.66
2022-10-11T13:52:00.238Z,30.32
2022-10-11T13:54:54.514Z,30.60
2022-10-11T13:57:29.277Z,30.50
2022-10-11T13:59:56.069Z,30.43
2022-10-11T14:02:24.746Z,30.50
2022-10-11T14:04:51.379Z,30.66
2022-10-11T14:07:33.445Z,30.63
2022-10-11T14:10:00.133Z,30.76
2022-10-11T14:12:31.998Z,30.59
2022-10-11T14:15:01.468Z,30.60
2022-10-11T14:17:44.259Z,30.79
2022-10-11T14:20:11.690Z,30.68
2022-10-11T14:22:38.752Z,30.31
2022-10-11T14:25:05.817Z,30.29
2022-10-11T14:27:32.739Z,29.70
2022-10-11T14:30:24.089Z,30.05
2022-10-11T14:32:49.022Z,30.00
2022-10-11T14:35:18.870Z,30.27
2022-10-11T14:37:45.924Z,30.31
2022-10-11T14:40:16.007Z,30.51
2022-10-11T14:42:43.346Z,29.71
2022-10-11T14:45:10.342Z,30.16
2022-10-11T14:47:42.621Z,29.89
2022-10-11T14:50:34.878Z,29.88
2022-10-11T14:53:02.966Z,30.10
2022-10-11T14:55:31.050Z,29.93
2022-10-11T14:57:58.058Z,29.95
2022-10-11T15:00:28.002Z,29.85
2022-10-11T15:02:55.890Z,30.12
2022-10-11T15:05:27.748Z,30.29
2022-10-11T15:07:57.795Z,30.24
2022-10-11T15:10:26.463Z,30.24
2022-10-11T15:12:55.013Z,29.53
2022-10-11T15:15:25.011Z,29.82
2022-10-11T15:17:55.113Z,29.95
2022-10-11T15:20:24.148Z,29.65
2022-10-11T15:22:51.846Z,29.93
2022-10-11T15:25:18.781Z,30.09
2022-10-11T15:27:45.756Z,29.81
2022-10-11T15:30:17.270Z,29.74
2022-10-11T15:32:45.542Z,29.83
2022-10-11T15:35:12.446Z,29.74
2022-10-11T15:37:39.208Z,29.81
2022-10-11T15:40:16.453Z,29.55
2022-10-11T15:42:43.642Z,29.59
2022-10-11T15:45:10.595Z,29.72
2022-10-11T15:47:37.623Z,29.69
2022-10-11T15:50:14.014Z,29.62
2022-10-11T15:52:40.675Z,29.68
2022-10-11T15:55:07.568Z,29.62
2022-10-11T15:57:34.130Z,29.69
2022-10-11T16:00:00.649Z,29.82
2022-10-11T16:02:27.783Z,29.76
2022-10-11T16:04:54.314Z,29.61
2022-10-11T16:07:20.879Z,29.64
2022-10-11T16:09:47.405Z,29.82
2022-10-11T16:12:14.008Z,29.62
2022-10-11T16:14:44.903Z,29.47
2022-10-11T16:17:13.674Z,29.45
2022-10-11T16:19:40.258Z,29.39
2022-10-11T16:22:06.797Z,29.27
2022-10-11T16:24:33.453Z,29.23
2022-10-11T16:27:00.975Z,29.09
2022-10-11T16:29:27.653Z,29.04
2022-10-11T16:31:54.437Z,28.86
2022-10-11T16:34:20.970Z,28.69
2022-10-11T16:36:47.867Z,28.46
2022-10-11T16:39:17.233Z,28.28
2022-10-11T16:41:45.188Z,27.98
2022-10-11T16:44:13.870Z,28.01
2022-10-11T16:46:41.120Z,27.87
2022-10-11T16:49:07.947Z,27.75
2022-10-11T16:51:34.528Z,27.11
2022-10-11T16:54:01.871Z,27.21
2022-10-11T16:56:28.579Z,27.10
2022-10-11T16:58:56.102Z,26.66
2022-10-11T17:01:23.565Z,26.76
2022-10-11T17:03:51.320Z,26.58
2022-10-11T17:06:18.903Z,26.65
2022-10-11T17:08:45.521Z,26.49
2022-10-11T17:11:12.157Z,26.05
2022-10-11T17:13:38.786Z,26.04
2022-10-11T17:16:05.988Z,26.12
2022-10-11T17:18:32.744Z,26.09
2022-10-11T17:21:04.818Z,25.93
2022-10-11T17:23:32.939Z,25.82
2022-10-11T17:26:05.256Z,25.81
2022-10-11T17:28:36.280Z,25.57
2022-10-11T17:31:04.753Z,25.77
2022-10-11T17:33:32.422Z,25.80
2022-10-11T17:36:00.686Z,25.59
2022-10-11T17:38:27.603Z,25.64
2022-10-11T17:41:02.338Z,25.57
2022-10-11T17:43:29.533Z,25.62
2022-10-11T17:45:57.275Z,25.40
2022-10-11T17:48:24.470Z,25.38
2022-10-11T17:50:51.046Z,25.29
2022-10-11T17:53:18.145Z,25.26
2022-10-11T17:55:45.379Z,25.27
2022-10-11T17:58:12.786Z,25.35
2022-10-11T18:00:40.098Z,25.17
2022-10-11T18:03:06.867Z,25.05
2022-10-11T18:05:33.786Z,25.10
2022-10-11T18:08:00.574Z,25.04
2022-10-11T18:10:27.617Z,24.91
2022-10-11T18:12:54.823Z,24.94
2022-10-11T18:15:21.668Z,24.81
2022-10-11T18:17:48.242Z,24.74
2022-10-11T18:20:14.827Z,24.74
2022-10-11T18:22:41.358Z,24.75
2022-10-11T18:25:08.303Z,24.66
2022-10-11T18:27:34.898Z,24.65
2022-10-11T18:30:02.703Z,24.12
2022-10-11T18:32:29.232Z,23.97
2022-10-11T18:34:57.828Z,24.06
2022-10-11T18:37:24.589Z,23.94
2022-10-11T18:39:51.304Z,23.96
2022-10-11T18:42:17.899Z,23.97
2022-10-11T18:44:44.734Z,24.07
2022-10-11T18:47:11.300Z,24.04
2022-10-11T18:49:38.427Z,23.84
2022-10-11T18:52:05.526Z,23.90
2022-10-11T18:54:32.502Z,23.74
2022-10-11T18:56:59.043Z,23.67
2022-10-11T18:59:25.644Z,23.55
2022-10-11T19:01:52.572Z,23.61
2022-10-11T19:04:19.922Z,23.49
2022-10-11T19:06:48.904Z,23.51
2022-10-11T19:09:24.271Z,23.45
2022-10-11T19:11:56.341Z,23.54
2022-10-11T19:14:26.050Z,23.59
2022-10-11T19:16:53.689Z,23.45
2022-10-11T19:19:23.895Z,23.39
2022-10-11T19:21:51.382Z,23.38
2022-10-11T19:24:21.993Z,23.40
2022-10-11T19:26:49.929Z,23.47
2022-10-11T19:29:19.723Z,23.44
2022-10-11T19:31:49.122Z,23.67
2022-10-11T19:34:16.206Z,23.61
2022-10-11T19:36:43.125Z,23.38
2022-10-11T19:39:13.214Z,23.36
2022-10-11T19:41:40.233Z,23.28
2022-10-11T19:44:07.122Z,23.00
2022-10-11T19:49:24.631Z,22.88
2022-10-11T19:51:55.332Z,22.80
2022-10-11T19:54:22.733Z,22.72
2022-10-11T19:56:50.497Z,22.64
2022-10-11T19:59:17.294Z,22.66
2022-10-11T20:01:49.319Z,22.70
2022-10-11T20:04:39.428Z,22.79
2022-10-11T20:07:03.174Z,22.71
2022-10-11T20:09:30.864Z,22.64
2022-10-11T20:11:58.372Z,22.67
2022-10-11T20:14:25.567Z,22.66
2022-10-11T20:16:52.983Z,22.64
2022-10-11T20:19:19.994Z,22.67
2022-10-11T20:21:47.415Z,22.53
2022-10-11T20:24:15.370Z,22.51
2022-10-11T20:26:41.989Z,22.43
2022-10-11T20:29:08.520Z,22.43
2022-10-11T20:31:41.616Z,22.54
2022-10-11T20:34:11.147Z,22.41
2022-10-11T20:36:37.934Z,22.32
2022-10-11T20:39:06.569Z,22.37
2022-10-11T20:41:39.739Z,22.47
2022-10-11T20:44:07.685Z,22.35
2022-10-11T20:46:37.091Z,22.40
2022-10-11T20:49:10.504Z,22.39
2022-10-11T20:51:38.885Z,22.42
2022-10-11T20:54:05.734Z,22.31
2022-10-11T20:56:34.114Z,22.22
2022-10-11T20:59:01.336Z,22.14
2022-10-11T21:01:31.108Z,22.17
2022-10-11T21:04:00.200Z,22.14
2022-10-11T21:06:27.559Z,22.34
2022-10-11T21:08:55.654Z,22.25
2022-10-11T21:11:25.778Z,22.23
2022-10-11T21:13:56.607Z,22.23
2022-10-11T21:16:23.816Z,22.02
2022-10-11T21:18:55.271Z,21.98
2022-10-11T21:21:25.877Z,21.96
2022-10-11T21:23:56.843Z,21.82
2022-10-11T21:26:23.598Z,21.72
2022-10-11T21:28:51.075Z,21.84
2022-10-11T21:31:19.710Z,21.88
2022-10-11T21:33:46.258Z,21.73
2022-10-11T21:36:16.102Z,21.76
2022-10-11T21:38:43.369Z,21.67
2022-10-11T21:41:15.841Z,21.79
2022-10-11T21:43:42.432Z,21.64
2022-10-11T21:46:19.620Z,21.57
2022-10-11T21:48:47.206Z,21.64
2022-10-11T21:51:17.069Z,21.55
2022-10-11T21:53:43.613Z,21.58
2022-10-11T21:56:10.135Z,21.63
2022-10-11T21:58:36.869Z,21.43
2022-10-11T22:01:03.583Z,21.53
2022-10-11T22:03:30.324Z,21.61
2022-10-11T22:05:57.019Z,21.70
2022-10-11T22:08:23.546Z,21.61
2022-10-11T22:10:57.045Z,21.66
2022-10-11T22:13:25.337Z,21.73
2022-10-11T22:15:52.032Z,21.77
2022-10-11T22:18:19.009Z,21.66
2022-10-11T22:20:45.966Z,21.70
2022-10-11T22:23:12.551Z,21.63
2022-10-11T22:25:39.769Z,21.61
2022-10-11T22:28:07.034Z,21.50
2022-10-11T22:30:33.927Z,21.56
2022-10-11T22:33:00.572Z,21.57
2022-10-11T22:35:27.095Z,21.44
2022-10-11T22:37:53.983Z,21.53
2022-10-11T22:40:20.923Z,21.55
2022-10-11T22:42:47.998Z,21.51
2022-10-11T22:45:15.015Z,21.52
2022-10-11T22:47:41.566Z,21.53
2022-10-11T22:50:08.871Z,21.49
2022-10-11T22:52:35.379Z,21.48
2022-10-11T22:55:02.221Z,21.43
2022-10-11T22:57:29.529Z,21.45
2022-10-11T22:59:56.169Z,21.39
2022-10-11T23:02:23.151Z,21.42
2022-10-11T23:04:49.741Z,21.38
2022-10-11T23:07:16.260Z,21.35
2022-10-11T23:09:42.787Z,21.34
2022-10-11T23:12:09.339Z,21.26
2022-10-11T23:14:35.886Z,21.35
2022-10-11T23:17:02.691Z,21.30
2022-10-11T23:19:29.269Z,21.31
2022-10-11T23:21:55.796Z,21.26
2022-10-11T23:24:22.333Z,21.31
2022-10-11T23:26:49.043Z,21.25
2022-10-11T23:29:15.604Z,21.16
2022-10-11T23:31:42.146Z,21.14
2022-10-11T23:34:08.668Z,21.09
2022-10-11T23:36:35.202Z,21.21
2022-10-11T23:39:01.754Z,21.14
2022-10-11T23:41:29.321Z,21.07
2022-10-11T23:43:57.029Z,21.09
2022-10-11T23:46:23.600Z,20.91
2022-10-11T23:48:50.397Z,20.93
2022-10-11T23:51:16.941Z,20.79
2022-10-11T23:53:43.469Z,20.96
2022-10-11T23:56:11.093Z,20.96
2022-10-11T23:58:38.091Z,20.87
